Queenstown Aerodrome, New Zealand
Current Conditions -  °F | °C
As of 2:30 AM on Saturday 29 Nov 2014 (Local Time) from NZCH Reporting Station
Rain Showers Rain Showers  
Wind Chill: 44°   Ceiling: 1500
Heat Index: 46°   Visibility: 6mi
Dew Point: 46°   Wind: 5mph
Humidity: 100%   Direction: 60°ENE
Pressure: 29.65"   Gusts: NA
Location:  45.02°S, 168.73°E
Report Text: NZCH 281430Z AUTO 06004KT 9999 VCSH OVC015/// 08/08 Q1004 NOSIG
Loading
Personal Weather Stations






























Interactive Weather Map New forecast layout! Learn more

10-Day Weather Forecast

Advertisements
Track Severe Weather on mobile